createdAt,value
2018-09-12T00:03:57.983Z,67.80
2018-09-12T00:06:28.236Z,68.00
2018-09-12T00:08:50.385Z,68.40
2018-09-12T00:11:06.591Z,68.60
2018-09-12T00:15:56.922Z,68.80
2018-09-12T00:18:18.955Z,69.10
2018-09-12T00:20:49.099Z,69.00
2018-09-12T00:23:23.471Z,68.90
2018-09-12T00:25:49.327Z,68.90
2018-09-12T00:32:51.908Z,69.10
2018-09-12T00:35:09.555Z,69.40
2018-09-12T00:37:24.273Z,69.40
2018-09-12T00:42:30.493Z,69.80
2018-09-12T00:44:40.324Z,69.90
2018-09-12T00:46:57.484Z,70.00
2018-09-12T00:49:06.671Z,70.20
2018-09-12T00:51:14.222Z,70.30
2018-09-12T00:54:14.444Z,70.40
2018-09-12T00:56:23.687Z,70.20
2018-09-12T00:58:42.252Z,70.40
2018-09-12T01:01:04.558Z,70.50
2018-09-12T01:03:15.900Z,70.50
2018-09-12T01:05:24.256Z,70.60
2018-09-12T01:07:33.136Z,71.00
2018-09-12T01:11:57.373Z,71.30
2018-09-12T01:14:08.722Z,71.60
2018-09-12T01:16:21.715Z,71.80
2018-09-12T01:21:25.436Z,72.30
2018-09-12T01:24:05.453Z,73.40
2018-09-12T01:29:39.181Z,72.90
2018-09-12T01:31:50.470Z,72.50
2018-09-12T01:34:04.296Z,72.00
2018-09-12T01:36:14.024Z,71.70
2018-09-12T01:38:27.062Z,71.70
2018-09-12T01:40:34.487Z,71.70
2018-09-12T01:42:45.315Z,71.60
2018-09-12T01:44:54.256Z,71.80
2018-09-12T01:47:01.118Z,72.40
2018-09-12T01:49:19.474Z,72.60
2018-09-12T01:51:31.073Z,72.50
2018-09-12T01:53:38.205Z,72.80
2018-09-12T01:55:50.055Z,73.00
2018-09-12T01:58:06.387Z,73.20
2018-09-12T02:00:37.899Z,73.30
2018-09-12T02:02:45.257Z,73.20
2018-09-12T02:07:40.122Z,74.20
2018-09-12T02:13:14.930Z,74.00
2018-09-12T02:15:29.937Z,73.70
2018-09-12T02:18:05.017Z,73.60
2018-09-12T02:20:36.041Z,73.80
2018-09-12T02:22:53.272Z,74.00
2018-09-12T02:25:01.836Z,74.30
2018-09-12T02:27:26.135Z,74.50
2018-09-12T02:29:39.527Z,74.40
2018-09-12T02:31:59.141Z,74.20
2018-09-12T02:34:15.215Z,74.40
2018-09-12T02:36:55.095Z,74.50
2018-09-12T02:41:28.229Z,75.20
2018-09-12T02:43:35.979Z,75.40
2018-09-12T02:45:55.921Z,75.60
2018-09-12T02:48:30.454Z,76.00
2018-09-12T02:50:49.595Z,76.00
2018-09-12T02:53:01.767Z,76.40
2018-09-12T02:55:23.483Z,76.70
2018-09-12T02:57:38.125Z,77.10
2018-09-12T03:02:36.219Z,77.30
2018-09-12T03:05:10.142Z,78.00
2018-09-12T03:07:23.926Z,77.30
2018-09-12T03:09:32.890Z,77.20
2018-09-12T03:11:43.945Z,77.40
2018-09-12T03:13:52.922Z,77.40
2018-09-12T03:16:09.085Z,77.40
2018-09-12T03:18:18.228Z,77.70
2018-09-12T03:20:48.175Z,77.80
2018-09-12T03:22:58.884Z,78.20
2018-09-12T03:25:19.367Z,78.60
2018-09-12T03:27:30.329Z,78.90
2018-09-12T03:29:40.274Z,79.10
2018-09-12T03:34:26.293Z,79.20
2018-09-12T03:36:38.499Z,79.00
2018-09-12T03:38:45.861Z,79.40
2018-09-12T03:41:12.702Z,79.50
2018-09-12T03:43:19.591Z,79.20
2018-09-12T03:48:16.038Z,79.60
2018-09-12T03:50:33.550Z,80.10
2018-09-12T03:52:55.386Z,80.10
2018-09-12T03:55:07.240Z,80.10
2018-09-12T03:57:21.704Z,80.10
2018-09-12T03:59:26.958Z,80.50
2018-09-12T04:01:33.229Z,80.90
2018-09-12T04:03:38.454Z,81.30
2018-09-12T04:05:44.491Z,81.40
2018-09-12T04:07:53.603Z,81.30
2018-09-12T04:10:06.093Z,81.20
2018-09-12T04:12:11.287Z,81.40
2018-09-12T04:14:19.085Z,81.40
2018-09-12T04:16:30.502Z,81.70
2018-09-12T04:18:39.312Z,81.50
2018-09-12T04:21:04.925Z,81.70
2018-09-12T04:23:13.805Z,81.70
2018-09-12T04:25:19.528Z,81.70
2018-09-12T04:27:24.972Z,82.10
2018-09-12T04:29:31.569Z,82.20
2018-09-12T04:31:47.208Z,82.00
2018-09-12T04:33:52.442Z,82.40
2018-09-12T04:35:59.048Z,82.70
2018-09-12T04:38:04.254Z,83.30
2018-09-12T04:40:10.021Z,82.80
2018-09-12T04:42:15.056Z,82.50
2018-09-12T04:44:19.043Z,82.60
2018-09-12T04:46:25.933Z,82.60
2018-09-12T04:48:31.749Z,82.60
2018-09-12T04:50:37.110Z,82.20
2018-09-12T04:52:41.684Z,82.60
2018-09-12T04:54:48.109Z,82.40
2018-09-12T04:56:53.169Z,82.00
2018-09-12T04:58:57.257Z,81.60
2018-09-12T05:01:02.820Z,81.50
2018-09-12T05:03:10.643Z,81.40
2018-09-12T05:05:15.875Z,81.30
2018-09-12T05:07:20.578Z,81.20
2018-09-12T05:09:25.992Z,81.10
2018-09-12T05:11:48.952Z,81.40
2018-09-12T05:13:53.964Z,81.70
2018-09-12T05:16:07.805Z,81.70
2018-09-12T05:18:12.888Z,81.30
2018-09-12T05:20:17.963Z,81.00
2018-09-12T05:22:22.135Z,81.00
2018-09-12T05:24:29.479Z,81.80
2018-09-12T05:26:34.828Z,80.90
2018-09-12T05:28:40.412Z,81.60
2018-09-12T05:30:45.643Z,80.70
2018-09-12T05:32:52.452Z,80.60
2018-09-12T05:35:07.308Z,80.60
2018-09-12T05:37:12.197Z,80.40
2018-09-12T05:39:23.853Z,80.10
2018-09-12T05:41:28.059Z,79.30
2018-09-12T05:43:32.540Z,78.50
2018-09-12T05:48:06.724Z,77.70
2018-09-12T05:50:13.934Z,77.20
2018-09-12T05:52:18.013Z,76.60
2018-09-12T05:54:22.605Z,76.00
2018-09-12T05:56:27.298Z,75.20
2018-09-12T05:58:32.217Z,74.30
2018-09-12T06:00:40.670Z,74.00
2018-09-12T06:02:46.085Z,73.90
2018-09-12T06:04:51.974Z,73.70
2018-09-12T06:06:57.263Z,73.10
2018-09-12T06:09:04.753Z,72.60
2018-09-12T06:11:13.184Z,72.30
2018-09-12T06:13:18.653Z,71.70
2018-09-12T06:15:24.584Z,71.10
2018-09-12T06:17:28.619Z,71.00
2018-09-12T06:19:33.259Z,70.80
2018-09-12T06:21:38.587Z,70.70
2018-09-12T06:23:46.500Z,70.00
2018-09-12T06:25:51.529Z,69.50
2018-09-12T06:27:57.863Z,69.20
2018-09-12T06:30:06.680Z,68.90
2018-09-12T06:32:11.304Z,68.50
2018-09-12T06:34:16.569Z,67.90
2018-09-12T06:36:21.486Z,67.50
2018-09-12T06:38:25.547Z,67.20
2018-09-12T06:40:33.465Z,66.10
2018-09-12T06:42:45.843Z,66.10
2018-09-12T06:44:54.678Z,66.10
2018-09-12T06:46:59.372Z,65.20
2018-09-12T06:49:04.754Z,64.70
2018-09-12T06:51:10.649Z,64.60
2018-09-12T06:53:16.881Z,62.80
2018-09-12T06:55:24.205Z,62.80
2018-09-12T06:57:33.368Z,62.00
2018-09-12T06:59:39.324Z,62.00
2018-09-12T07:02:22.476Z,61.40
2018-09-12T07:04:27.395Z,60.80
2018-09-12T07:06:32.536Z,60.70
2018-09-12T07:08:44.812Z,59.80
2018-09-12T07:10:50.840Z,59.30
2018-09-12T07:13:09.694Z,59.00
2018-09-12T07:15:16.405Z,58.40
2018-09-12T07:17:25.595Z,58.00
2018-09-12T07:19:33.196Z,57.40
2018-09-12T07:21:42.669Z,57.40
2018-09-12T07:23:47.819Z,56.80
2018-09-12T07:25:52.560Z,56.80
2018-09-12T07:27:57.382Z,56.60
2018-09-12T07:30:14.762Z,56.90
2018-09-12T07:32:19.942Z,57.20
2018-09-12T07:34:26.123Z,56.90
2018-09-12T07:36:32.034Z,56.20
2018-09-12T07:38:36.643Z,55.90
2018-09-12T07:40:48.573Z,54.70
2018-09-12T07:42:55.136Z,54.30
2018-09-12T07:45:01.400Z,53.90
2018-09-12T07:47:06.044Z,54.00
2018-09-12T07:49:11.091Z,53.40
2018-09-12T07:51:16.022Z,52.80
2018-09-12T07:53:20.516Z,53.20
2018-09-12T07:55:28.028Z,52.70
2018-09-12T07:57:32.738Z,52.10
2018-09-12T07:59:40.930Z,51.80
2018-09-12T08:01:49.485Z,51.80
2018-09-12T08:03:56.405Z,51.70
2018-09-12T08:06:01.552Z,51.40
2018-09-12T08:08:06.193Z,50.80
2018-09-12T08:10:10.112Z,51.20
2018-09-12T08:12:16.278Z,51.00
2018-09-12T08:14:20.574Z,49.80
2018-09-12T08:16:26.837Z,49.20
2018-09-12T08:18:31.213Z,48.90
2018-09-12T08:20:36.711Z,48.70
2018-09-12T08:22:43.397Z,48.00
2018-09-12T08:24:54.990Z,47.70
2018-09-12T08:27:03.078Z,46.70
2018-09-12T08:29:15.337Z,47.40
2018-09-12T08:31:24.584Z,46.60
2018-09-12T08:33:30.431Z,45.30
2018-09-12T08:35:36.698Z,45.20
2018-09-12T08:37:43.651Z,44.80
2018-09-12T08:39:49.424Z,44.60
2018-09-12T08:41:55.132Z,44.60
2018-09-12T08:44:01.029Z,45.00
2018-09-12T08:46:11.507Z,43.70
2018-09-12T08:48:17.072Z,43.60
2018-09-12T08:50:25.497Z,44.50
2018-09-12T08:52:32.167Z,44.30
2018-09-12T08:54:37.396Z,43.20
2018-09-12T08:56:45.349Z,42.80
2018-09-12T08:58:50.022Z,42.50
2018-09-12T09:00:56.068Z,41.60
2018-09-12T09:03:01.305Z,41.50
2018-09-12T09:05:07.524Z,41.20
2018-09-12T09:07:12.923Z,40.10
2018-09-12T09:09:18.413Z,39.80
2018-09-12T09:11:22.442Z,39.50
2018-09-12T09:13:28.712Z,39.40
2018-09-12T09:15:34.333Z,39.90
2018-09-12T09:17:40.577Z,40.40
2018-09-12T09:19:46.111Z,40.50
2018-09-12T09:21:51.413Z,39.80
2018-09-12T09:23:56.429Z,38.80
2018-09-12T09:26:02.724Z,39.00
2018-09-12T09:28:07.444Z,39.70
2018-09-12T09:34:50.295Z,38.50
2018-09-12T09:36:54.973Z,38.40
2018-09-12T09:39:00.158Z,38.30
2018-09-12T09:41:09.464Z,38.00
2018-09-12T09:43:15.658Z,38.10
2018-09-12T09:45:22.443Z,37.70
2018-09-12T09:47:28.512Z,37.70
2018-09-12T09:49:38.259Z,37.60
2018-09-12T09:51:42.443Z,37.10
2018-09-12T09:53:47.957Z,36.70
2018-09-12T09:55:51.953Z,36.30
2018-09-12T09:57:56.682Z,36.70
2018-09-12T10:00:00.752Z,36.90
2018-09-12T10:02:09.856Z,36.80
2018-09-12T10:04:20.474Z,37.00
2018-09-12T10:07:04.840Z,36.40
2018-09-12T10:09:16.343Z,36.00
2018-09-12T10:11:27.279Z,36.50
2018-09-12T10:13:34.368Z,35.70
2018-09-12T10:15:39.232Z,35.80
2018-09-12T10:17:48.580Z,35.60
2018-09-12T10:19:54.016Z,35.60
2018-09-12T10:22:06.377Z,34.90
2018-09-12T10:24:14.402Z,34.80
2018-09-12T10:26:20.143Z,34.90
2018-09-12T10:28:25.715Z,34.50
2018-09-12T10:30:33.953Z,34.90
2018-09-12T10:32:39.060Z,34.60
2018-09-12T10:34:44.904Z,34.70
2018-09-12T10:36:50.741Z,34.50
2018-09-12T10:38:55.319Z,34.70
2018-09-12T10:41:00.057Z,34.50
2018-09-12T10:43:04.509Z,34.80
2018-09-12T10:45:09.876Z,34.40
2018-09-12T10:47:18.013Z,34.50
2018-09-12T10:49:22.307Z,34.90
2018-09-12T10:51:27.805Z,34.50
2018-09-12T10:53:33.532Z,33.90
2018-09-12T10:55:38.034Z,34.30
2018-09-12T10:57:43.627Z,34.10
2018-09-12T10:59:51.262Z,34.30
2018-09-12T11:01:56.452Z,34.20
2018-09-12T11:04:02.540Z,34.30
2018-09-12T11:06:08.266Z,34.10
2018-09-12T11:08:13.367Z,33.90
2018-09-12T11:10:20.151Z,33.80
2018-09-12T11:12:29.499Z,33.70
2018-09-12T11:14:50.568Z,33.80
2018-09-12T11:16:57.512Z,33.30
2018-09-12T11:19:06.909Z,33.10
2018-09-12T11:21:13.499Z,32.90
2018-09-12T11:23:21.305Z,32.40
2018-09-12T11:25:25.272Z,32.60
2018-09-12T11:27:33.616Z,33.00
2018-09-12T11:29:38.797Z,33.70
2018-09-12T11:31:43.772Z,33.90
2018-09-12T11:33:49.598Z,33.80
2018-09-12T11:35:59.165Z,33.40
2018-09-12T11:38:03.186Z,33.10
2018-09-12T11:40:08.760Z,33.20
2018-09-12T11:42:13.300Z,32.70
2018-09-12T11:44:24.302Z,32.50
2018-09-12T11:46:30.092Z,33.20
2018-09-12T11:48:34.960Z,32.70
2018-09-12T11:50:39.643Z,32.80
2018-09-12T11:52:44.166Z,32.70
2018-09-12T11:54:50.604Z,32.60
2018-09-12T11:56:54.755Z,32.80
2018-09-12T11:58:59.438Z,33.10
2018-09-12T12:01:04.401Z,33.10
2018-09-12T12:03:09.926Z,33.40
2018-09-12T12:05:15.623Z,33.20
2018-09-12T12:07:22.284Z,32.70
2018-09-12T12:09:28.199Z,32.40
2018-09-12T12:11:32.471Z,33.00
2018-09-12T12:13:39.456Z,33.60
2018-09-12T12:15:55.520Z,33.50
2018-09-12T12:18:00.610Z,33.30
2018-09-12T12:20:06.070Z,33.50
2018-09-12T12:22:13.084Z,33.50
2018-09-12T12:24:19.045Z,33.20
2018-09-12T12:26:25.089Z,32.40
2018-09-12T12:28:29.871Z,32.60
2018-09-12T12:30:39.834Z,32.60
2018-09-12T12:32:45.472Z,31.10
2018-09-12T12:34:57.622Z,31.20
2018-09-12T12:37:05.263Z,31.70
2018-09-12T12:39:14.025Z,31.60
2018-09-12T12:41:20.420Z,31.50
2018-09-12T12:43:29.562Z,31.10
2018-09-12T12:45:39.061Z,30.70
2018-09-12T12:47:43.252Z,29.80
2018-09-12T12:49:52.514Z,28.90
2018-09-12T12:51:57.132Z,29.30
2018-09-12T12:54:04.750Z,28.90
2018-09-12T12:56:10.120Z,28.40
2018-09-12T12:58:17.983Z,28.60
2018-09-12T13:00:25.471Z,29.50
2018-09-12T13:02:29.433Z,29.80
2018-09-12T13:04:34.829Z,29.70
2018-09-12T13:06:40.431Z,29.50
2018-09-12T13:08:54.910Z,28.70
2018-09-12T13:11:11.494Z,29.20
2018-09-12T13:13:24.565Z,29.70
2018-09-12T13:15:38.699Z,29.90
2018-09-12T13:17:53.180Z,29.70
2018-09-12T13:20:05.465Z,29.30
2018-09-12T13:22:21.651Z,28.80
2018-09-12T13:24:34.165Z,28.60
2018-09-12T13:26:54.519Z,28.20
2018-09-12T13:29:12.992Z,28.50
2018-09-12T13:31:26.726Z,28.40
2018-09-12T13:33:33.305Z,28.60
2018-09-12T13:35:54.823Z,28.80
2018-09-12T13:38:01.611Z,28.80
2018-09-12T13:40:13.201Z,28.30
2018-09-12T13:42:35.601Z,27.80
2018-09-12T13:44:52.855Z,28.10
2018-09-12T13:47:12.512Z,28.30
2018-09-12T13:49:22.292Z,28.50
2018-09-12T13:51:33.163Z,28.20
2018-09-12T13:53:51.541Z,28.60
2018-09-12T13:55:56.453Z,28.00
2018-09-12T13:58:07.294Z,27.80
2018-09-12T14:00:24.762Z,27.40
2018-09-12T14:02:38.390Z,27.30
2018-09-12T14:04:48.178Z,27.00
2018-09-12T14:06:55.826Z,27.10
2018-09-12T14:09:17.649Z,26.90
2018-09-12T14:11:32.029Z,26.20
2018-09-12T14:13:47.985Z,26.40
2018-09-12T14:18:12.645Z,27.00
2018-09-12T14:20:28.616Z,27.20
2018-09-12T14:22:52.350Z,26.90
2018-09-12T14:25:09.306Z,26.60
2018-09-12T14:29:41.440Z,26.10
2018-09-12T14:31:49.442Z,24.10
2018-09-12T14:33:57.409Z,24.10
2018-09-12T14:36:10.758Z,24.90
2018-09-12T14:38:19.535Z,23.70
2018-09-12T14:40:26.585Z,23.90
2018-09-12T14:42:40.511Z,23.90
2018-09-12T14:44:51.785Z,23.80
2018-09-12T14:46:57.107Z,23.90
2018-09-12T14:49:01.827Z,24.20
2018-09-12T14:51:13.669Z,24.30
2018-09-12T14:53:21.215Z,24.30
2018-09-12T14:55:30.618Z,24.10
2018-09-12T14:57:40.244Z,24.10
2018-09-12T14:59:57.622Z,24.10
2018-09-12T15:02:05.054Z,24.00
2018-09-12T15:04:12.117Z,23.50
2018-09-12T15:06:16.720Z,23.60
2018-09-12T15:08:24.424Z,23.90
2018-09-12T15:10:33.959Z,24.00
2018-09-12T15:12:44.801Z,23.90
2018-09-12T15:14:52.528Z,24.00
2018-09-12T15:17:10.901Z,23.90
2018-09-12T15:19:22.308Z,23.80
2018-09-12T15:21:26.384Z,23.70
2018-09-12T15:23:31.798Z,24.30
2018-09-12T15:25:38.210Z,23.70
2018-09-12T15:29:59.562Z,24.00
2018-09-12T15:32:17.396Z,24.10
2018-09-12T15:34:29.280Z,24.30
2018-09-12T15:36:44.832Z,24.40
2018-09-12T15:38:57.551Z,25.00
2018-09-12T15:41:08.423Z,24.30
2018-09-12T15:43:21.901Z,24.40
2018-09-12T15:45:50.287Z,24.50
2018-09-12T15:48:11.354Z,24.80
2018-09-12T15:50:17.936Z,24.80
2018-09-12T15:52:30.232Z,24.60
2018-09-12T15:54:39.763Z,24.80
2018-09-12T15:56:50.936Z,24.60
2018-09-12T15:59:07.281Z,24.60
2018-09-12T16:01:37.977Z,25.00
2018-09-12T16:03:54.007Z,25.20
2018-09-12T16:05:58.936Z,25.20
2018-09-12T16:08:40.275Z,25.20
2018-09-12T16:11:32.929Z,25.10
2018-09-12T16:13:47.057Z,25.40
2018-09-12T16:16:17.248Z,25.30
2018-09-12T16:18:30.261Z,25.50
2018-09-12T16:20:40.755Z,25.60
2018-09-12T16:25:30.376Z,26.00
2018-09-12T16:27:41.737Z,26.00
2018-09-12T16:29:55.839Z,26.00
2018-09-12T16:32:15.125Z,26.20
2018-09-12T16:34:32.099Z,26.20
2018-09-12T16:36:42.227Z,26.40
2018-09-12T16:39:06.720Z,26.60
2018-09-12T16:41:24.543Z,26.50
2018-09-12T16:43:32.733Z,26.70
2018-09-12T16:46:12.300Z,27.10
2018-09-12T16:48:28.368Z,27.10
2018-09-12T16:50:41.052Z,27.40
2018-09-12T16:52:54.847Z,27.70
2018-09-12T16:55:15.271Z,28.30
2018-09-12T16:57:30.010Z,28.90
2018-09-12T16:59:43.929Z,29.50
2018-09-12T17:02:01.403Z,30.00
2018-09-12T17:04:06.303Z,30.50
2018-09-12T17:06:16.235Z,31.30
2018-09-12T17:08:22.022Z,31.70
2018-09-12T17:10:33.417Z,31.90
2018-09-12T17:12:43.104Z,32.20
2018-09-12T17:14:53.144Z,32.50
2018-09-12T17:17:18.104Z,32.70
2018-09-12T17:19:27.254Z,33.00
2018-09-12T17:21:46.577Z,33.40
2018-09-12T17:23:56.542Z,33.80
2018-09-12T17:26:02.846Z,34.10
2018-09-12T17:28:12.350Z,34.20
2018-09-12T17:30:32.570Z,34.50
2018-09-12T17:32:40.094Z,34.70
2018-09-12T17:35:00.744Z,34.90
2018-09-12T17:37:14.268Z,35.20
2018-09-12T17:39:40.997Z,35.40
2018-09-12T17:41:53.090Z,35.70
2018-09-12T17:44:09.385Z,36.40
2018-09-12T17:46:31.376Z,36.60
2018-09-12T17:48:48.302Z,36.80
2018-09-12T17:51:03.348Z,36.90
2018-09-12T17:53:15.176Z,37.60
2018-09-12T17:55:30.655Z,38.60
2018-09-12T17:57:41.689Z,39.40
2018-09-12T17:59:49.602Z,39.60
2018-09-12T18:01:55.184Z,40.40
2018-09-12T18:04:05.906Z,40.70
2018-09-12T18:06:15.162Z,40.60
2018-09-12T18:08:35.808Z,40.90
2018-09-12T18:10:41.634Z,41.70
2018-09-12T18:12:51.790Z,42.50
2018-09-12T18:14:57.352Z,43.10
2018-09-12T18:19:59.299Z,43.80
2018-09-12T18:22:08.550Z,44.40
2018-09-12T18:24:16.539Z,45.60
2018-09-12T18:26:37.889Z,46.40
2018-09-12T18:28:49.332Z,46.70
2018-09-12T18:31:07.553Z,46.70
2018-09-12T18:33:44.402Z,47.80
2018-09-12T18:36:00.537Z,47.80
2018-09-12T18:41:31.088Z,48.30
2018-09-12T18:43:50.489Z,48.90
2018-09-12T18:46:12.406Z,49.10
2018-09-12T18:48:32.063Z,49.60
2018-09-12T18:53:31.279Z,50.50
2018-09-12T18:55:47.094Z,50.30
2018-09-12T18:58:12.405Z,49.70
2018-09-12T19:00:32.341Z,50.20
2018-09-12T19:02:47.892Z,50.90
2018-09-12T19:05:06.886Z,51.80
2018-09-12T19:07:17.547Z,51.60
2018-09-12T19:09:30.465Z,51.50
2018-09-12T19:11:39.231Z,51.10
2018-09-12T19:13:49.645Z,51.30
2018-09-12T19:15:57.981Z,51.70
2018-09-12T19:18:16.347Z,52.50
2018-09-12T19:20:26.482Z,52.70
2018-09-12T19:22:32.680Z,52.30
2018-09-12T19:24:53.651Z,52.50
2018-09-12T19:27:16.123Z,52.70
2018-09-12T19:29:33.908Z,53.40
2018-09-12T19:31:54.428Z,54.00
2018-09-12T19:34:12.048Z,54.60
2018-09-12T19:37:01.917Z,55.50
2018-09-12T19:39:56.896Z,55.70
2018-09-12T19:42:02.672Z,55.90
2018-09-12T19:44:07.884Z,56.00
2018-09-12T19:46:13.679Z,56.40
2018-09-12T19:48:17.906Z,56.80
2018-09-12T19:50:22.979Z,57.10
2018-09-12T19:52:31.113Z,57.30
2018-09-12T19:54:40.583Z,57.20
2018-09-12T19:56:51.703Z,57.10
2018-09-12T19:58:59.747Z,57.40
2018-09-12T20:01:05.160Z,57.30
2018-09-12T20:03:12.114Z,57.50
2018-09-12T20:05:19.978Z,57.40
2018-09-12T20:07:31.295Z,57.80
2018-09-12T20:09:35.338Z,57.90
2018-09-12T20:11:40.677Z,58.10
2018-09-12T20:13:46.303Z,58.30
2018-09-12T20:15:54.432Z,58.50
2018-09-12T20:18:00.082Z,59.10
2018-09-12T20:20:07.647Z,59.40
2018-09-12T20:22:12.667Z,60.50
2018-09-12T20:24:17.233Z,61.30
2018-09-12T20:26:27.208Z,62.30
2018-09-12T20:28:38.333Z,62.90
2018-09-12T20:30:44.101Z,63.40
2018-09-12T20:32:52.136Z,64.60
2018-09-12T20:34:57.483Z,65.60
2018-09-12T20:37:06.451Z,66.50
2018-09-12T20:39:13.710Z,67.40
2018-09-12T20:41:18.952Z,68.20
2018-09-12T20:43:23.606Z,68.90
2018-09-12T20:45:30.437Z,69.80
2018-09-12T20:47:37.682Z,70.30
2018-09-12T20:49:43.977Z,71.00
2018-09-12T20:51:48.093Z,71.50
2018-09-12T20:53:58.637Z,72.60
2018-09-12T20:56:07.387Z,73.00
2018-09-12T20:58:11.687Z,73.80
2018-09-12T21:00:16.237Z,74.20
2018-09-12T21:02:21.783Z,74.60
2018-09-12T21:04:27.297Z,74.80
2018-09-12T21:06:36.700Z,75.10
2018-09-12T21:08:40.934Z,75.50
2018-09-12T21:10:47.688Z,75.80
2018-09-12T21:12:54.213Z,76.20
2018-09-12T21:14:58.254Z,76.60
2018-09-12T21:17:03.773Z,76.40
2018-09-12T21:19:08.340Z,76.80
2018-09-12T21:21:12.328Z,77.00
2018-09-12T21:23:22.063Z,77.40
2018-09-12T21:25:27.715Z,77.50
2018-09-12T21:27:31.911Z,77.80
2018-09-12T21:29:36.938Z,77.90
2018-09-12T21:31:41.016Z,78.20
2018-09-12T21:33:45.107Z,78.20
2018-09-12T21:35:49.656Z,78.60
2018-09-12T21:37:56.677Z,78.70
2018-09-12T21:40:00.648Z,79.20
2018-09-12T21:42:07.318Z,79.40
2018-09-12T21:44:11.423Z,79.40
2018-09-12T21:46:19.548Z,79.80
2018-09-12T21:48:23.526Z,80.10
2018-09-12T21:50:27.799Z,80.40
2018-09-12T21:52:31.856Z,80.60
2018-09-12T21:54:38.462Z,81.40
2018-09-12T21:56:45.263Z,81.50
2018-09-12T21:58:50.404Z,82.00
2018-09-12T22:00:54.747Z,82.00
2018-09-12T22:02:59.626Z,82.00
2018-09-12T22:05:04.237Z,82.10
2018-09-12T22:07:10.365Z,82.40
2018-09-12T22:09:15.096Z,82.80
2018-09-12T22:11:19.691Z,82.90
2018-09-12T22:13:24.699Z,83.80
2018-09-12T22:15:28.755Z,83.90
2018-09-12T22:17:33.451Z,84.20
2018-09-12T22:19:38.788Z,84.40
2018-09-12T22:21:42.757Z,84.60
2018-09-12T22:23:47.349Z,85.10
2018-09-12T22:25:51.628Z,85.30
2018-09-12T22:27:56.299Z,85.50
2018-09-12T22:30:00.890Z,85.50
2018-09-12T22:32:07.128Z,86.40
2018-09-12T22:34:11.091Z,85.90
2018-09-12T22:36:15.287Z,86.00
2018-09-12T22:38:20.616Z,86.40
2018-09-12T22:40:25.267Z,86.60
2018-09-12T22:42:29.330Z,86.90
2018-09-12T22:44:33.578Z,87.00
2018-09-12T22:46:37.571Z,87.10
2018-09-12T22:48:41.588Z,87.10
2018-09-12T22:50:47.075Z,87.00
2018-09-12T22:52:54.643Z,87.00
2018-09-12T22:54:58.890Z,87.60
2018-09-12T22:57:04.264Z,87.30
2018-09-12T22:59:10.521Z,87.40
2018-09-12T23:01:17.046Z,87.40
2018-09-12T23:03:21.859Z,87.40
2018-09-12T23:05:27.799Z,87.70
2018-09-12T23:07:32.351Z,87.80
2018-09-12T23:09:36.727Z,87.70
2018-09-12T23:11:40.724Z,87.80
2018-09-12T23:13:46.372Z,87.80
2018-09-12T23:15:52.903Z,87.60
2018-09-12T23:17:57.315Z,87.80
2018-09-12T23:20:02.883Z,87.40
2018-09-12T23:22:09.201Z,87.20
2018-09-12T23:24:15.447Z,87.20
2018-09-12T23:26:20.420Z,87.60
2018-09-12T23:28:25.164Z,87.80
2018-09-12T23:30:29.211Z,88.20
2018-09-12T23:32:37.666Z,88.20
2018-09-12T23:34:42.028Z,88.30
2018-09-12T23:36:45.979Z,88.40
2018-09-12T23:38:50.051Z,88.40
2018-09-12T23:40:55.379Z,88.50
2018-09-12T23:42:59.899Z,88.80
2018-09-12T23:45:04.531Z,89.20
2018-09-12T23:47:09.813Z,89.10
2018-09-12T23:49:13.838Z,89.50
2018-09-12T23:51:18.048Z,90.10
2018-09-12T23:53:22.963Z,89.60
2018-09-12T23:55:29.054Z,90.00
2018-09-12T23:57:33.000Z,90.00
2018-09-12T23:59:37.325Z,90.00
